createdAt,value
2022-09-16T00:00:35.781Z,18.59
2022-09-16T00:03:04.238Z,18.59
2022-09-16T00:05:31.820Z,18.54
2022-09-16T00:07:59.456Z,18.57
2022-09-16T00:10:28.689Z,18.60
2022-09-16T00:12:56.315Z,18.55
2022-09-16T00:15:23.984Z,18.60
2022-09-16T00:17:51.685Z,18.63
2022-09-16T00:20:19.417Z,18.61
2022-09-16T00:22:46.983Z,18.62
2022-09-16T00:25:14.597Z,18.63
2022-09-16T00:27:43.531Z,18.62
2022-09-16T00:30:11.998Z,18.60
2022-09-16T00:32:39.597Z,18.61
2022-09-16T00:35:08.322Z,18.64
2022-09-16T00:37:36.024Z,18.70
2022-09-16T00:40:04.044Z,18.70
2022-09-16T00:42:31.683Z,18.66
2022-09-16T00:45:03.341Z,18.66
2022-09-16T00:47:35.567Z,18.62
2022-09-16T00:50:09.229Z,18.60
2022-09-16T00:52:37.378Z,18.61
2022-09-16T00:55:09.452Z,18.59
2022-09-16T00:57:39.242Z,18.58
2022-09-16T01:00:10.787Z,18.56
2022-09-16T01:02:38.832Z,18.53
2022-09-16T01:05:09.151Z,18.46
2022-09-16T01:07:43.097Z,18.42
2022-09-16T01:10:11.358Z,18.41
2022-09-16T01:12:40.050Z,18.48
2022-09-16T01:15:09.010Z,18.45
2022-09-16T01:17:55.312Z,18.42
2022-09-16T01:21:00.885Z,18.35
2022-09-16T01:23:58.129Z,18.34
2022-09-16T01:26:48.981Z,18.30
2022-09-16T01:29:33.937Z,18.32
2022-09-16T01:32:07.689Z,18.37
2022-09-16T01:34:47.269Z,18.41
2022-09-16T01:37:25.662Z,18.42
2022-09-16T01:40:03.552Z,18.38
2022-09-16T01:42:39.568Z,18.33
2022-09-16T01:45:16.438Z,18.26
2022-09-16T01:47:55.625Z,18.17
2022-09-16T01:50:27.621Z,18.09
2022-09-16T01:53:02.147Z,18.01
2022-09-16T01:55:33.821Z,18.07
2022-09-16T01:58:06.102Z,18.08
2022-09-16T02:00:34.576Z,18.05
2022-09-16T02:03:08.677Z,18.05
2022-09-16T02:05:41.848Z,18.12
2022-09-16T02:08:13.422Z,18.17
2022-09-16T02:10:44.519Z,18.22
2022-09-16T02:13:18.969Z,18.31
2022-09-16T02:15:50.996Z,18.33
2022-09-16T02:18:25.083Z,18.32
2022-09-16T02:20:55.350Z,18.31
2022-09-16T02:23:26.560Z,18.31
2022-09-16T02:25:56.486Z,18.29
2022-09-16T02:28:27.908Z,18.28
2022-09-16T02:30:59.395Z,18.29
2022-09-16T02:33:32.798Z,18.24
2022-09-16T02:36:03.181Z,18.17
2022-09-16T02:38:35.670Z,18.17
2022-09-16T02:41:03.632Z,18.17
2022-09-16T02:43:31.980Z,18.21
2022-09-16T02:46:10.247Z,18.22
2022-09-16T02:48:50.474Z,18.16
2022-09-16T02:51:30.606Z,18.19
2022-09-16T02:54:02.997Z,18.21
2022-09-16T02:56:33.911Z,18.17
2022-09-16T02:59:02.165Z,18.15
2022-09-16T03:01:33.811Z,18.17
2022-09-16T03:04:04.114Z,18.14
2022-09-16T03:06:36.000Z,18.14
2022-09-16T03:09:07.305Z,18.12
2022-09-16T03:11:50.250Z,18.11
2022-09-16T03:14:53.000Z,18.12
2022-09-16T03:17:34.567Z,18.09
2022-09-16T03:20:10.966Z,18.07
2022-09-16T03:22:48.562Z,18.08
2022-09-16T03:25:30.999Z,18.04
2022-09-16T03:28:06.825Z,18.03
2022-09-16T03:30:42.530Z,18.05
2022-09-16T03:33:16.766Z,18.00
2022-09-16T03:35:50.294Z,18.00
2022-09-16T03:38:19.570Z,17.97
2022-09-16T03:40:49.224Z,17.98
2022-09-16T03:43:18.075Z,17.94
2022-09-16T03:45:45.938Z,17.92
2022-09-16T03:48:14.592Z,17.94
2022-09-16T03:50:42.203Z,17.90
2022-09-16T03:53:11.297Z,17.89
2022-09-16T03:55:38.939Z,17.88
2022-09-16T03:58:06.570Z,17.84
2022-09-16T04:00:34.593Z,17.86
2022-09-16T04:03:03.055Z,17.91
2022-09-16T04:05:30.966Z,17.90
2022-09-16T04:07:58.809Z,17.86
2022-09-16T04:10:27.817Z,17.89
2022-09-16T04:12:58.594Z,17.93
2022-09-16T04:15:26.223Z,17.92
2022-09-16T04:17:55.097Z,17.89
2022-09-16T04:20:22.722Z,17.92
2022-09-16T04:22:50.271Z,17.94
2022-09-16T04:25:17.871Z,17.96
2022-09-16T04:27:46.876Z,17.94
2022-09-16T04:30:14.805Z,17.92
2022-09-16T04:32:42.365Z,17.98
2022-09-16T04:35:10.617Z,18.01
2022-09-16T04:37:38.215Z,18.01
2022-09-16T04:40:06.713Z,18.03
2022-09-16T04:42:34.393Z,18.06
2022-09-16T04:45:03.447Z,18.13
2022-09-16T04:47:31.141Z,18.14
2022-09-16T04:49:59.430Z,18.15
2022-09-16T04:52:27.075Z,18.17
2022-09-16T04:54:55.891Z,18.17
2022-09-16T04:57:25.854Z,18.15
2022-09-16T04:59:53.416Z,18.16
2022-09-16T05:02:22.360Z,18.17
2022-09-16T05:04:49.990Z,18.12
2022-09-16T05:07:17.647Z,18.14
2022-09-16T05:09:45.207Z,18.14
2022-09-16T05:12:12.835Z,18.12
2022-09-16T05:14:40.688Z,18.11
2022-09-16T05:17:08.364Z,18.08
2022-09-16T05:19:37.313Z,18.07
2022-09-16T05:22:07.035Z,18.09
2022-09-16T05:24:36.385Z,18.07
2022-09-16T05:27:04.471Z,18.08
2022-09-16T05:29:32.099Z,18.08
2022-09-16T05:31:59.691Z,18.11
2022-09-16T05:34:28.603Z,18.10
2022-09-16T05:36:57.632Z,18.08
2022-09-16T05:39:26.207Z,18.07
2022-09-16T05:41:56.178Z,18.03
2022-09-16T05:44:23.853Z,18.06
2022-09-16T05:46:51.630Z,18.07
2022-09-16T05:49:20.860Z,18.09
2022-09-16T05:51:49.749Z,18.09
2022-09-16T05:54:19.756Z,18.06
2022-09-16T05:56:48.330Z,18.05
2022-09-16T05:59:17.451Z,18.06
2022-09-16T06:01:45.930Z,18.05
2022-09-16T06:04:15.884Z,18.07
2022-09-16T06:06:44.875Z,18.07
2022-09-16T06:09:15.799Z,18.06
2022-09-16T06:11:46.807Z,18.08
2022-09-16T06:14:15.744Z,18.09
2022-09-16T06:16:43.887Z,18.08
2022-09-16T06:19:13.632Z,18.06
2022-09-16T06:21:41.811Z,18.05
2022-09-16T06:24:10.056Z,18.04
2022-09-16T06:26:39.770Z,18.07
2022-09-16T06:29:09.794Z,18.05
2022-09-16T06:31:38.656Z,18.04
2022-09-16T06:34:07.709Z,18.05
2022-09-16T06:36:38.518Z,18.09
2022-09-16T06:39:08.267Z,18.11
2022-09-16T06:41:35.961Z,18.16
2022-09-16T06:44:03.605Z,18.18
2022-09-16T06:46:32.521Z,18.19
2022-09-16T06:49:05.047Z,18.22
2022-09-16T06:51:34.351Z,18.21
2022-09-16T06:54:03.521Z,18.18
2022-09-16T06:56:31.300Z,18.20
2022-09-16T06:58:58.899Z,18.18
2022-09-16T07:01:28.585Z,18.16
2022-09-16T07:03:59.306Z,18.15
2022-09-16T07:06:52.249Z,18.17
2022-09-16T07:09:18.434Z,18.23
2022-09-16T07:11:46.093Z,18.27
2022-09-16T07:14:13.659Z,18.32
2022-09-16T07:16:41.327Z,18.32
2022-09-16T07:19:10.482Z,18.36
2022-09-16T07:21:38.129Z,18.37
2022-09-16T07:24:06.180Z,18.38
2022-09-16T07:26:35.711Z,18.38
2022-09-16T07:29:05.318Z,18.42
2022-09-16T07:31:36.350Z,18.49
2022-09-16T07:34:05.529Z,18.58
2022-09-16T07:36:36.365Z,18.71
2022-09-16T07:39:04.846Z,18.78
2022-09-16T07:41:35.631Z,18.84
2022-09-16T07:44:05.070Z,18.88
2022-09-16T07:46:34.726Z,18.89
2022-09-16T07:49:03.944Z,18.89
2022-09-16T07:51:31.908Z,18.77
2022-09-16T07:54:03.744Z,18.75
2022-09-16T07:56:34.352Z,18.71
2022-09-16T07:59:03.099Z,18.69
2022-09-16T08:01:31.702Z,18.67
2022-09-16T08:04:01.326Z,18.68
2022-09-16T08:06:30.152Z,18.69
2022-09-16T08:09:10.159Z,18.67
2022-09-16T08:11:50.377Z,18.65
2022-09-16T08:14:17.972Z,18.66
2022-09-16T08:16:46.591Z,18.65
2022-09-16T08:19:14.378Z,18.69
2022-09-16T08:21:42.008Z,18.67
2022-09-16T08:24:10.902Z,18.70
2022-09-16T08:26:38.587Z,18.72
2022-09-16T08:29:09.397Z,18.87
2022-09-16T08:31:38.654Z,18.98
2022-09-16T08:34:07.285Z,19.01
2022-09-16T08:36:35.151Z,19.15
2022-09-16T08:39:03.142Z,19.97
2022-09-16T08:41:51.398Z,20.11
2022-09-16T08:44:34.497Z,19.88
2022-09-16T08:47:06.279Z,19.70
2022-09-16T08:49:38.262Z,19.54
2022-09-16T08:52:14.262Z,19.44
2022-09-16T08:54:45.126Z,19.35
2022-09-16T08:57:16.481Z,19.29
2022-09-16T08:59:49.891Z,19.26
2022-09-16T09:02:29.822Z,19.29
2022-09-16T09:04:57.963Z,19.25
2022-09-16T09:07:43.101Z,19.18
2022-09-16T09:10:16.851Z,19.17
2022-09-16T09:12:49.742Z,19.14
2022-09-16T09:15:33.428Z,19.20
2022-09-16T09:18:16.139Z,19.37
2022-09-16T09:20:50.581Z,19.65
2022-09-16T09:23:34.209Z,19.76
2022-09-16T09:26:08.596Z,19.99
2022-09-16T09:29:01.287Z,21.06
2022-09-16T09:31:39.372Z,22.02
2022-09-16T09:34:17.244Z,22.57
2022-09-16T09:37:00.338Z,22.52
2022-09-16T09:39:43.125Z,22.26
2022-09-16T09:42:16.219Z,22.52
2022-09-16T09:44:52.129Z,22.81
2022-09-16T09:47:26.185Z,22.50
2022-09-16T09:49:57.686Z,22.08
2022-09-16T09:52:32.391Z,21.70
2022-09-16T09:55:16.291Z,21.40
2022-09-16T09:57:56.938Z,21.18
2022-09-16T10:00:24.552Z,21.07
2022-09-16T10:02:53.871Z,20.99
2022-09-16T10:05:25.962Z,20.89
2022-09-16T10:07:56.665Z,20.80
2022-09-16T10:10:25.854Z,20.69
2022-09-16T10:12:54.562Z,20.58
2022-09-16T10:15:24.447Z,20.50
2022-09-16T10:17:54.622Z,20.41
2022-09-16T10:20:28.199Z,20.40
2022-09-16T10:23:01.031Z,20.36
2022-09-16T10:25:30.683Z,20.33
2022-09-16T10:28:01.269Z,20.31
2022-09-16T10:30:32.842Z,20.26
2022-09-16T10:33:04.830Z,20.28
2022-09-16T10:35:34.491Z,20.24
2022-09-16T10:38:06.398Z,20.44
2022-09-16T10:40:34.942Z,20.79
2022-09-16T10:43:05.430Z,21.04
2022-09-16T10:45:36.655Z,21.13
2022-09-16T10:48:13.296Z,21.65
2022-09-16T10:50:40.930Z,21.59
2022-09-16T10:53:23.947Z,21.38
2022-09-16T10:55:59.013Z,21.53
2022-09-16T10:58:26.875Z,21.47
2022-09-16T11:01:20.138Z,21.46
2022-09-16T11:04:21.856Z,21.24
2022-09-16T11:07:02.591Z,21.02
2022-09-16T11:09:36.656Z,21.01
2022-09-16T11:12:34.814Z,21.01
2022-09-16T11:15:13.926Z,21.10
2022-09-16T11:17:58.620Z,21.14
2022-09-16T11:20:57.548Z,21.17
2022-09-16T11:23:41.248Z,21.15
2022-09-16T11:26:18.452Z,21.05
2022-09-16T11:29:09.441Z,21.40
2022-09-16T11:31:44.395Z,21.55
2022-09-16T11:34:24.742Z,21.39
2022-09-16T11:37:07.308Z,21.15
2022-09-16T11:40:01.312Z,20.92
2022-09-16T11:42:34.307Z,20.76
2022-09-16T11:45:12.777Z,20.63
2022-09-16T11:47:54.519Z,20.49
2022-09-16T11:50:42.200Z,20.48
2022-09-16T11:53:34.581Z,20.41
2022-09-16T11:56:08.780Z,20.24
2022-09-16T11:58:40.078Z,20.09
2022-09-16T12:03:54.425Z,20.12
2022-09-16T12:06:26.622Z,20.02
2022-09-16T12:09:01.661Z,19.91
2022-09-16T12:11:33.901Z,20.29
2022-09-16T12:14:09.379Z,20.99
2022-09-16T12:16:42.924Z,22.31
2022-09-16T12:19:17.862Z,23.78
2022-09-16T12:21:57.500Z,23.67
2022-09-16T12:24:33.479Z,23.05
2022-09-16T12:27:07.058Z,22.49
2022-09-16T12:29:41.795Z,22.03
2022-09-16T12:32:14.081Z,21.79
2022-09-16T12:34:45.606Z,21.69
2022-09-16T12:37:25.579Z,21.54
2022-09-16T12:39:54.596Z,21.31
2022-09-16T12:42:51.520Z,21.25
2022-09-16T12:46:06.540Z,21.27
2022-09-16T12:48:58.979Z,21.36
2022-09-16T12:51:54.518Z,21.26
2022-09-16T12:54:51.227Z,21.05
2022-09-16T12:57:42.584Z,20.78
2022-09-16T13:00:16.610Z,20.60
2022-09-16T13:02:48.763Z,20.44
2022-09-16T13:05:26.242Z,20.31
2022-09-16T13:07:59.452Z,20.17
2022-09-16T13:10:53.959Z,20.09
2022-09-16T13:13:30.979Z,19.97
2022-09-16T13:16:00.969Z,19.86
2022-09-16T13:18:41.148Z,19.73
2022-09-16T13:21:21.155Z,19.60
2022-09-16T13:23:54.439Z,19.42
2022-09-16T13:26:22.276Z,19.31
2022-09-16T13:28:51.267Z,19.22
2022-09-16T13:31:30.950Z,19.03
2022-09-16T13:34:15.102Z,18.96
2022-09-16T13:36:42.819Z,18.96
2022-09-16T13:39:13.617Z,18.95
2022-09-16T13:41:44.325Z,19.04
2022-09-16T13:44:31.511Z,19.08
2022-09-16T13:47:16.952Z,19.17
2022-09-16T13:49:49.061Z,19.20
2022-09-16T13:52:21.071Z,19.24
2022-09-16T13:55:09.547Z,19.25
2022-09-16T13:57:55.465Z,19.25
2022-09-16T14:00:32.325Z,19.22
2022-09-16T14:03:26.683Z,19.25
2022-09-16T14:06:14.521Z,19.23
2022-09-16T14:08:51.704Z,19.22
2022-09-16T14:11:29.768Z,19.20
2022-09-16T14:14:05.919Z,19.13
2022-09-16T14:16:40.221Z,19.03
2022-09-16T14:19:14.015Z,19.02
2022-09-16T14:21:41.637Z,19.02
2022-09-16T14:24:17.216Z,19.00
2022-09-16T14:26:54.767Z,19.05
2022-09-16T14:29:23.789Z,19.00
2022-09-16T14:31:55.482Z,18.99
2022-09-16T14:34:28.516Z,19.06
2022-09-16T14:36:56.314Z,19.06
2022-09-16T14:39:26.414Z,19.02
2022-09-16T14:41:58.338Z,19.05
2022-09-16T14:44:31.908Z,19.08
2022-09-16T14:47:09.146Z,19.06
2022-09-16T14:49:40.972Z,19.09
2022-09-16T14:52:20.611Z,19.11
2022-09-16T14:54:48.335Z,19.12
2022-09-16T14:57:20.556Z,19.12
2022-09-16T14:59:48.464Z,19.12
2022-09-16T15:02:22.805Z,19.14
2022-09-16T15:04:53.772Z,19.12
2022-09-16T15:07:25.026Z,19.11
2022-09-16T15:09:58.491Z,19.11
2022-09-16T15:12:29.209Z,19.04
2022-09-16T15:14:57.669Z,18.99
2022-09-16T15:17:29.158Z,18.94
2022-09-16T15:19:58.872Z,18.84
2022-09-16T15:22:27.895Z,18.76
2022-09-16T15:24:58.491Z,18.70
2022-09-16T15:27:28.199Z,18.64
2022-09-16T15:29:59.555Z,18.54
2022-09-16T15:32:31.765Z,18.43
2022-09-16T15:35:25.949Z,18.37
2022-09-16T15:37:54.852Z,18.32
2022-09-16T15:40:32.587Z,18.26
2022-09-16T15:43:06.877Z,18.22
2022-09-16T15:45:34.739Z,18.15
2022-09-16T15:48:07.393Z,18.15
2022-09-16T15:50:41.990Z,18.17
2022-09-16T15:53:13.958Z,18.18
2022-09-16T15:55:44.195Z,18.15
2022-09-16T15:58:17.635Z,18.18
2022-09-16T16:01:04.344Z,18.18
2022-09-16T16:03:47.253Z,18.19
2022-09-16T16:06:15.096Z,18.14
2022-09-16T16:08:48.355Z,18.13
2022-09-16T16:11:18.096Z,18.17
2022-09-16T16:13:46.681Z,18.20
2022-09-16T16:16:16.241Z,18.18
2022-09-16T16:18:47.366Z,18.15
2022-09-16T16:21:17.164Z,18.12
2022-09-16T16:23:45.349Z,18.08
2022-09-16T16:26:13.006Z,18.05
2022-09-16T16:28:40.586Z,18.08
2022-09-16T16:31:13.521Z,18.04
2022-09-16T16:33:47.506Z,17.98
2022-09-16T16:36:16.779Z,17.91
2022-09-16T16:38:46.184Z,17.81
2022-09-16T16:41:20.658Z,17.76
2022-09-16T16:43:48.454Z,17.70
2022-09-16T16:46:17.436Z,17.68
2022-09-16T16:48:47.105Z,17.57
2022-09-16T16:51:14.824Z,17.52
2022-09-16T16:53:42.527Z,17.43
2022-09-16T16:56:15.077Z,17.40
2022-09-16T16:58:42.992Z,17.38
2022-09-16T17:01:12.785Z,17.31
2022-09-16T17:03:40.975Z,17.29
2022-09-16T17:06:10.357Z,17.28
2022-09-16T17:08:38.359Z,17.21
2022-09-16T17:11:07.950Z,17.16
2022-09-16T17:13:35.615Z,17.16
2022-09-16T17:16:04.091Z,17.11
2022-09-16T17:18:31.832Z,17.08
2022-09-16T17:21:02.878Z,17.03
2022-09-16T17:23:32.182Z,16.97
2022-09-16T17:25:59.777Z,16.92
2022-09-16T17:28:27.444Z,16.90
2022-09-16T17:30:55.324Z,16.67
2022-09-16T17:33:23.379Z,16.54
2022-09-16T17:36:01.195Z,16.44
2022-09-16T17:38:29.062Z,16.52
2022-09-16T17:41:03.854Z,16.60
2022-09-16T17:43:32.869Z,16.67
2022-09-16T17:46:01.371Z,16.72
2022-09-16T17:48:29.378Z,16.65
2022-09-16T17:50:57.962Z,16.47
2022-09-16T17:53:26.675Z,16.39
2022-09-16T17:56:02.088Z,16.39
2022-09-16T17:58:31.400Z,16.46
2022-09-16T18:01:08.494Z,16.50
2022-09-16T18:03:36.822Z,16.51
2022-09-16T18:06:07.225Z,16.49
2022-09-16T18:08:34.839Z,16.52
2022-09-16T18:11:02.622Z,16.55
2022-09-16T18:13:31.957Z,16.65
2022-09-16T18:16:03.894Z,16.72
2022-09-16T18:18:32.727Z,16.73
2022-09-16T18:21:00.545Z,16.72
2022-09-16T18:23:30.568Z,16.74
2022-09-16T18:25:58.591Z,16.76
2022-09-16T18:28:26.236Z,16.77
2022-09-16T18:31:06.150Z,16.78
2022-09-16T18:33:36.628Z,16.79
2022-09-16T18:36:07.326Z,16.83
2022-09-16T18:38:35.967Z,16.89
2022-09-16T18:41:08.483Z,16.89
2022-09-16T18:43:36.517Z,16.89
2022-09-16T18:46:10.931Z,16.87
2022-09-16T18:48:39.139Z,16.87
2022-09-16T18:51:08.129Z,16.83
2022-09-16T18:53:35.766Z,16.83
2022-09-16T18:56:03.736Z,16.83
2022-09-16T18:58:31.833Z,16.88
2022-09-16T19:01:09.475Z,16.92
2022-09-16T19:03:38.471Z,16.92
2022-09-16T19:06:06.428Z,16.93
2022-09-16T19:08:35.636Z,16.97
2022-09-16T19:11:04.213Z,17.00
2022-09-16T19:13:33.702Z,17.02
2022-09-16T19:16:01.407Z,16.98
2022-09-16T19:18:29.440Z,16.91
2022-09-16T19:20:58.720Z,16.90
2022-09-16T19:23:26.369Z,16.91
2022-09-16T19:25:54.491Z,16.91
2022-09-16T19:28:22.050Z,16.89
2022-09-16T19:30:49.902Z,16.87
2022-09-16T19:33:17.919Z,16.85
2022-09-16T19:35:45.519Z,16.85
2022-09-16T19:38:14.549Z,16.84
2022-09-16T19:40:42.221Z,16.81
2022-09-16T19:43:09.813Z,16.76
2022-09-16T19:45:37.485Z,16.74
2022-09-16T19:48:05.973Z,16.74
2022-09-16T19:50:33.767Z,16.77
2022-09-16T19:53:01.422Z,16.76
2022-09-16T19:55:30.379Z,16.78
2022-09-16T19:57:58.039Z,16.79
2022-09-16T20:00:36.740Z,16.81
2022-09-16T20:03:13.656Z,16.74
2022-09-16T20:05:41.272Z,16.69
2022-09-16T20:08:08.912Z,16.66
2022-09-16T20:10:37.978Z,16.64
2022-09-16T20:13:05.620Z,16.45
2022-09-16T20:15:33.680Z,16.47
2022-09-16T20:18:01.259Z,16.50
2022-09-16T20:20:29.983Z,16.54
2022-09-16T20:22:57.579Z,16.52
2022-09-16T20:25:25.280Z,16.48
2022-09-16T20:27:54.400Z,16.45
2022-09-16T20:30:22.023Z,16.46
2022-09-16T20:32:49.994Z,16.48
2022-09-16T20:35:17.645Z,16.51
2022-09-16T20:37:45.313Z,16.50
2022-09-16T20:40:12.985Z,16.49
2022-09-16T20:42:40.710Z,16.49
2022-09-16T20:45:11.051Z,16.47
2022-09-16T20:47:38.638Z,16.45
2022-09-16T20:50:09.227Z,16.43
2022-09-16T20:52:36.819Z,16.44
2022-09-16T20:55:06.324Z,16.36
2022-09-16T20:57:34.012Z,16.30
2022-09-16T21:00:01.684Z,16.28
2022-09-16T21:02:30.650Z,16.29
2022-09-16T21:05:03.599Z,16.24
2022-09-16T21:07:31.269Z,16.17
2022-09-16T21:09:59.080Z,16.12
2022-09-16T21:12:26.720Z,16.07
2022-09-16T21:14:54.291Z,16.02
2022-09-16T21:17:22.621Z,16.01
2022-09-16T21:19:51.652Z,15.94
2022-09-16T21:22:20.210Z,15.86
2022-09-16T21:24:47.973Z,15.86
2022-09-16T21:27:15.598Z,15.87
2022-09-16T21:29:43.264Z,15.85
2022-09-16T21:32:10.922Z,15.90
2022-09-16T21:34:38.530Z,15.89
2022-09-16T21:37:07.460Z,15.90
2022-09-16T21:39:35.104Z,15.86
2022-09-16T21:42:02.700Z,15.76
2022-09-16T21:44:30.385Z,15.75
2022-09-16T21:46:57.931Z,15.73
2022-09-16T21:49:26.081Z,15.70
2022-09-16T21:51:55.136Z,15.71
2022-09-16T21:54:25.189Z,15.67
2022-09-16T21:56:53.111Z,15.67
2022-09-16T21:59:21.189Z,15.68
2022-09-16T22:01:50.189Z,15.69
2022-09-16T22:04:20.506Z,15.66
2022-09-16T22:06:49.669Z,15.68
2022-09-16T22:09:17.539Z,15.73
2022-09-16T22:11:46.998Z,15.73
2022-09-16T22:14:14.634Z,15.73
2022-09-16T22:16:42.439Z,15.72
2022-09-16T22:19:12.167Z,15.76
2022-09-16T22:21:42.217Z,15.73
2022-09-16T22:24:10.372Z,15.72
2022-09-16T22:26:38.493Z,15.72
2022-09-16T22:29:09.298Z,15.70
2022-09-16T22:31:38.407Z,15.70
2022-09-16T22:34:06.527Z,15.62
2022-09-16T22:36:36.441Z,15.63
2022-09-16T22:39:06.116Z,15.63
2022-09-16T22:41:34.679Z,15.67
2022-09-16T22:44:02.946Z,15.69
2022-09-16T22:46:34.488Z,15.64
2022-09-16T22:49:02.674Z,15.61
2022-09-16T22:51:30.412Z,15.60
2022-09-16T22:53:58.039Z,15.54
2022-09-16T22:56:29.279Z,15.56
2022-09-16T22:58:57.957Z,15.59
2022-09-16T23:01:27.668Z,15.57
2022-09-16T23:03:58.438Z,15.59
2022-09-16T23:06:27.971Z,15.59
2022-09-16T23:08:55.881Z,15.57
2022-09-16T23:11:25.452Z,15.58
2022-09-16T23:13:54.100Z,15.60
2022-09-16T23:16:23.690Z,15.58
2022-09-16T23:18:51.833Z,15.53
2022-09-16T23:21:22.103Z,15.54
2022-09-16T23:23:52.077Z,15.55
2022-09-16T23:26:21.780Z,15.56
2022-09-16T23:28:52.522Z,15.54
2022-09-16T23:31:22.820Z,15.49
2022-09-16T23:33:50.620Z,15.38
2022-09-16T23:36:20.410Z,15.35
2022-09-16T23:38:48.548Z,15.29
2022-09-16T23:41:19.725Z,15.31
2022-09-16T23:43:48.410Z,15.28
2022-09-16T23:46:20.335Z,15.30
2022-09-16T23:48:51.511Z,15.28
2022-09-16T23:51:27.234Z,15.27
2022-09-16T23:53:56.721Z,15.23
2022-09-16T23:56:24.308Z,15.22
2022-09-16T23:58:52.810Z,15.22
